Time;durP1;ratioP1;P1;durP2;ratioP2;P2;SDS_P1;SDS_P2;PMS_P1;PMS_P2;Temp;Humidity;BMP_temperature;BMP_pressure;BME280_temperature;BME280_humidity;BME280_pressure;Samples;Min_cycle;Max_cycle;Signal;HPM_P1;HPM_P2
2021/04/24 00:01:30;;;;;;;2.40;0.90;;;10.20;92.70;;;;;;5096132;28;20461;-65
2021/04/24 00:03:58;;;;;;;1.30;0.90;;;10.20;93.00;;;;;;5096237;28;20433;-65
2021/04/24 00:06:25;;;;;;;3.10;0.80;;;10.20;93.40;;;;;;5096385;28;20422;-65
2021/04/24 00:08:51;;;;;;;1.67;0.80;;;10.20;93.50;;;;;;5095092;28;20472;-65
2021/04/24 00:11:18;;;;;;;2.20;0.85;;;10.10;93.70;;;;;;5096495;28;20536;-64
2021/04/24 00:13:45;;;;;;;4.70;0.80;;;10.10;94.50;;;;;;5095836;28;20856;-64
2021/04/24 00:16:12;;;;;;;1.90;0.80;;;10.10;94.30;;;;;;5096124;28;20814;-65
2021/04/24 00:18:39;;;;;;;1.80;0.80;;;10.10;94.90;;;;;;5095913;28;20841;-65
2021/04/24 00:21:06;;;;;;;3.20;1.00;;;10.10;95.20;;;;;;5095361;28;20453;-65
2021/04/24 00:23:32;;;;;;;2.20;0.80;;;10.10;95.70;;;;;;5094011;28;20426;-65
2021/04/24 00:25:59;;;;;;;1.20;0.90;;;10.10;96.20;;;;;;5094756;28;20442;-65
2021/04/24 00:28:26;;;;;;;1.60;0.70;;;10.10;96.50;;;;;;5094565;28;20422;-65
2021/04/24 00:30:52;;;;;;;1.70;0.80;;;10.10;96.30;;;;;;5094572;28;20417;-64
2021/04/24 00:33:19;;;;;;;2.10;0.80;;;10.10;96.10;;;;;;5094766;28;20460;-64
2021/04/24 00:35:46;;;;;;;1.40;0.80;;;10.10;95.60;;;;;;5094909;28;20762;-65
2021/04/24 00:38:12;;;;;;;1.50;0.80;;;10.10;95.80;;;;;;5096105;28;20457;-65
2021/04/24 00:40:39;;;;;;;1.80;0.90;;;10.10;95.80;;;;;;5095774;28;20417;-65
2021/04/24 00:43:06;;;;;;;2.10;0.80;;;10.10;96.00;;;;;;5095621;28;20424;-65
2021/04/24 00:45:32;;;;;;;1.80;1.00;;;10.10;96.10;;;;;;5096116;28;20442;-65
2021/04/24 00:48:00;;;;;;;2.20;0.85;;;10.00;96.60;;;;;;5095526;28;20515;-65
2021/04/24 00:50:29;;;;;;;1.67;0.90;;;10.00;96.30;;;;;;5093696;28;20430;-65
2021/04/24 00:52:56;;;;;;;1.40;0.90;;;10.00;96.60;;;;;;5093934;28;20461;-65
2021/04/24 00:55:23;;;;;;;1.67;0.80;;;9.90;97.50;;;;;;5093258;28;20520;-64
2021/04/24 00:57:50;;;;;;;1.50;0.80;;;9.90;97.70;;;;;;5093361;28;20502;-64
2021/04/24 01:00:18;;;;;;;1.50;0.90;;;9.90;98.00;;;;;;5093823;28;20736;-64
2021/04/24 01:02:44;;;;;;;3.25;0.95;;;9.90;98.50;;;;;;5093318;28;20453;-64
2021/04/24 01:05:16;;;;;;;1.40;0.80;;;9.90;99.00;;;;;;5093972;28;20421;-64
2021/04/24 01:07:43;;;;;;;1.50;0.80;;;9.80;99.70;;;;;;5093866;28;20418;-64
2021/04/24 01:10:13;;;;;;;2.10;0.80;;;9.80;99.90;;;;;;5093934;28;20857;-64
2021/04/24 01:12:39;;;;;;;2.65;0.80;;;9.80;99.90;;;;;;5094221;28;20453;-64
2021/04/24 01:15:07;;;;;;;2.33;0.80;;;9.80;99.90;;;;;;5093697;28;20474;-64
2021/04/24 01:17:34;;;;;;;1.33;0.80;;;9.70;99.90;;;;;;5095174;28;20457;-64
2021/04/24 01:20:00;;;;;;;1.63;0.80;;;9.80;99.90;;;;;;5094901;28;20449;-64
2021/04/24 01:22:28;;;;;;;2.70;0.80;;;9.80;99.90;;;;;;5095153;28;20414;-64
2021/04/24 01:24:54;;;;;;;1.20;0.80;;;9.80;99.90;;;;;;5095392;28;20469;-64
2021/04/24 01:27:21;;;;;;;1.80;0.80;;;9.70;99.90;;;;;;5094974;28;20410;-64
2021/04/24 01:29:47;;;;;;;1.50;0.73;;;9.60;99.90;;;;;;5093579;28;20841;-64
2021/04/24 01:32:13;;;;;;;1.70;0.80;;;9.60;99.90;;;;;;5093129;28;20438;-64
2021/04/24 01:34:40;;;;;;;1.70;0.80;;;9.50;99.90;;;;;;5092723;28;20484;-64
2021/04/24 01:37:07;;;;;;;1.52;0.77;;;9.50;99.90;;;;;;5093200;28;20445;-64
2021/04/24 01:39:34;;;;;;;1.37;0.70;;;9.50;99.90;;;;;;5093581;28;20476;-64
2021/04/24 01:42:00;;;;;;;2.08;0.90;;;9.40;99.90;;;;;;5093603;28;20437;-64
2021/04/24 01:44:27;;;;;;;2.00;0.80;;;9.30;99.90;;;;;;5093699;28;20502;-64
2021/04/24 01:46:54;;;;;;;1.48;0.80;;;9.30;99.90;;;;;;5094001;28;20465;-64
2021/04/24 01:49:20;;;;;;;1.50;0.80;;;9.40;99.90;;;;;;5094777;28;20422;-64
2021/04/24 01:51:47;;;;;;;1.10;0.70;;;9.50;99.90;;;;;;5095314;28;20425;-64
2021/04/24 01:54:14;;;;;;;1.50;0.80;;;9.50;99.90;;;;;;5094722;28;20518;-64
2021/04/24 01:56:44;;;;;;;1.50;0.80;;;9.40;99.90;;;;;;5094357;28;20466;-64
2021/04/24 01:59:10;;;;;;;1.20;0.80;;;9.30;99.90;;;;;;5094802;28;20461;-64
2021/04/24 02:01:37;;;;;;;1.52;0.80;;;9.20;99.90;;;;;;5094500;28;20786;-65
2021/04/24 02:04:03;;;;;;;1.50;0.80;;;9.10;99.90;;;;;;5095175;28;20449;-64
2021/04/24 02:06:30;;;;;;;1.60;0.80;;;9.10;99.90;;;;;;5094699;28;20457;-64
2021/04/24 02:08:56;;;;;;;2.47;0.80;;;9.10;99.90;;;;;;5093722;28;20469;-64
2021/04/24 02:11:23;;;;;;;2.35;0.80;;;9.00;99.90;;;;;;5093840;28;20453;-64
2021/04/24 02:13:51;;;;;;;2.00;0.70;;;8.90;99.90;;;;;;5093808;28;20466;-63
2021/04/24 02:16:18;;;;;;;1.92;0.70;;;9.00;99.90;;;;;;5093908;28;20516;-64
2021/04/24 02:18:45;;;;;;;1.30;0.80;;;9.00;99.90;;;;;;5093693;28;20460;-64
2021/04/24 02:21:11;;;;;;;1.70;0.80;;;9.00;99.90;;;;;;5093766;28;20793;-64
2021/04/24 02:23:39;;;;;;;1.30;0.80;;;9.00;99.90;;;;;;5094084;28;20517;-64
2021/04/24 02:26:08;;;;;;;4.10;0.80;;;9.00;99.90;;;;;;5096053;28;20737;-64
2021/04/24 02:28:34;;;;;;;1.50;0.80;;;9.00;99.90;;;;;;5098501;28;20552;-64
2021/04/24 02:31:02;;;;;;;1.70;0.90;;;8.90;99.90;;;;;;5098483;28;20418;-64
2021/04/24 02:33:29;;;;;;;2.20;0.80;;;9.00;99.90;;;;;;5098228;28;20475;-64
2021/04/24 02:35:57;;;;;;;2.45;0.80;;;8.90;99.90;;;;;;5098201;28;20472;-64
2021/04/24 02:38:27;;;;;;;2.38;0.70;;;8.90;99.90;;;;;;5098624;28;20899;-63
2021/04/24 02:40:55;;;;;;;1.30;0.70;;;9.00;99.90;;;;;;5098193;28;20779;-64
2021/04/24 02:43:22;;;;;;;3.90;0.85;;;8.90;99.90;;;;;;5098176;28;20465;-63
2021/04/24 02:45:49;;;;;;;2.60;0.80;;;8.90;99.90;;;;;;5098006;28;20873;-63
2021/04/24 02:48:18;;;;;;;1.20;0.70;;;8.90;99.90;;;;;;5098460;28;20457;-63
2021/04/24 02:50:44;;;;;;;2.85;0.90;;;8.80;99.90;;;;;;5097987;28;20784;-64
2021/04/24 02:53:11;;;;;;;1.73;0.80;;;8.70;99.90;;;;;;5098067;28;20508;-62
2021/04/24 02:55:38;;;;;;;2.30;0.77;;;8.60;99.90;;;;;;5098151;28;20833;-63
2021/04/24 02:58:06;;;;;;;1.20;0.77;;;8.60;99.90;;;;;;5098117;28;20479;-63
2021/04/24 03:00:33;;;;;;;2.40;0.90;;;8.50;99.90;;;;;;5098136;28;20433;-63
2021/04/24 03:03:01;;;;;;;2.42;0.80;;;8.50;99.90;;;;;;5097962;28;20454;-63
2021/04/24 03:05:29;;;;;;;1.80;0.80;;;8.60;99.90;;;;;;5097684;28;20860;-63
2021/04/24 03:07:55;;;;;;;1.20;0.80;;;8.70;99.90;;;;;;5097615;28;20515;-63
2021/04/24 03:10:22;;;;;;;1.60;0.90;;;8.80;99.90;;;;;;5097781;28;20426;-64
2021/04/24 03:12:49;;;;;;;2.60;0.73;;;8.90;99.90;;;;;;5098076;28;20527;-64
2021/04/24 03:15:16;;;;;;;2.05;0.80;;;8.70;99.90;;;;;;5097383;28;20530;-64
2021/04/24 03:17:43;;;;;;;1.40;0.80;;;8.60;99.90;;;;;;5097349;28;20424;-64
2021/04/24 03:20:12;;;;;;;1.70;0.80;;;8.60;99.90;;;;;;5095737;28;20684;-64
2021/04/24 03:22:39;;;;;;;1.70;0.80;;;8.50;99.90;;;;;;5095052;28;20449;-64
2021/04/24 03:25:08;;;;;;;2.47;0.90;;;8.50;99.90;;;;;;5096906;28;20512;-64
2021/04/24 03:27:35;;;;;;;1.90;0.80;;;8.40;99.90;;;;;;5096806;28;20421;-64
2021/04/24 03:30:02;;;;;;;1.85;0.90;;;8.40;99.90;;;;;;5096872;28;20461;-64
2021/04/24 03:32:29;;;;;;;2.00;0.80;;;8.40;99.90;;;;;;5096760;28;20645;-63
2021/04/24 03:34:55;;;;;;;1.20;0.80;;;8.30;99.90;;;;;;5097525;28;20441;-63
2021/04/24 03:37:22;;;;;;;1.92;0.80;;;8.30;99.90;;;;;;5096726;28;20857;-63
2021/04/24 03:39:49;;;;;;;2.20;0.80;;;8.30;99.90;;;;;;5096944;28;20475;-63
2021/04/24 03:42:16;;;;;;;1.30;0.85;;;8.30;99.90;;;;;;5097065;28;20449;-63
2021/04/24 03:44:43;;;;;;;2.53;0.90;;;8.20;99.90;;;;;;5097067;28;20410;-63
2021/04/24 03:47:09;;;;;;;1.90;0.80;;;8.20;99.90;;;;;;5095740;28;20480;-63
2021/04/24 03:49:36;;;;;;;3.03;0.93;;;8.10;99.90;;;;;;5096379;28;20516;-63
2021/04/24 03:52:03;;;;;;;1.90;1.50;;;8.00;99.90;;;;;;5096794;28;20483;-63
2021/04/24 03:54:30;;;;;;;3.28;0.90;;;8.00;99.90;;;;;;5097266;28;20665;-63
2021/04/24 03:56:57;;;;;;;2.45;0.80;;;8.10;99.90;;;;;;5096763;28;20437;-63
2021/04/24 03:59:24;;;;;;;2.22;0.88;;;8.20;99.90;;;;;;5097101;28;20426;-63
2021/04/24 04:01:51;;;;;;;1.88;0.80;;;8.30;99.90;;;;;;5096055;28;20418;-63
2021/04/24 04:04:18;;;;;;;1.58;0.90;;;8.00;99.90;;;;;;5096064;28;20472;-63
2021/04/24 04:06:44;;;;;;;2.50;0.90;;;8.00;99.90;;;;;;5095532;28;20413;-63
2021/04/24 04:09:10;;;;;;;1.50;0.80;;;7.90;99.90;;;;;;5095745;28;20461;-65
2021/04/24 04:11:37;;;;;;;1.40;0.80;;;7.90;99.90;;;;;;5095686;28;20786;-63
2021/04/24 04:14:04;;;;;;;2.00;0.80;;;7.80;99.90;;;;;;5095624;28;20473;-62
2021/04/24 04:16:31;;;;;;;3.90;0.80;;;7.70;99.90;;;;;;5095772;28;20469;-63
2021/04/24 04:18:57;;;;;;;3.30;0.90;;;7.70;99.90;;;;;;5095584;28;20457;-64
2021/04/24 04:21:24;;;;;;;2.80;0.95;;;7.80;99.90;;;;;;5096310;28;20851;-63
2021/04/24 04:23:50;;;;;;;1.20;0.70;;;7.80;99.90;;;;;;5096850;28;20452;-62
2021/04/24 04:26:17;;;;;;;3.28;0.90;;;7.90;99.90;;;;;;5096382;28;20760;-62
2021/04/24 04:28:44;;;;;;;1.70;0.88;;;8.10;99.90;;;;;;5096231;28;20520;-63
2021/04/24 04:31:11;;;;;;;2.70;1.00;;;8.00;99.90;;;;;;5096035;28;20418;-63
2021/04/24 04:33:37;;;;;;;2.80;0.80;;;8.00;99.90;;;;;;5095999;28;20461;-63
2021/04/24 04:36:05;;;;;;;1.40;0.80;;;7.90;99.90;;;;;;5095873;28;20799;-63
2021/04/24 04:38:32;;;;;;;2.00;0.80;;;7.90;99.90;;;;;;5095869;28;20430;-63
2021/04/24 04:40:59;;;;;;;2.30;0.80;;;8.00;99.90;;;;;;5096014;28;20425;-63
2021/04/24 04:43:26;;;;;;;1.70;0.88;;;7.80;99.90;;;;;;5096006;28;20417;-63
2021/04/24 04:45:53;;;;;;;1.87;0.90;;;7.90;99.90;;;;;;5095070;28;20453;-63
2021/04/24 04:48:20;;;;;;;1.38;0.90;;;7.80;99.90;;;;;;5094283;28;20718;-63
2021/04/24 04:50:47;;;;;;;1.80;0.80;;;7.80;99.90;;;;;;5089405;28;20457;-63
2021/04/24 04:53:14;;;;;;;1.40;0.80;;;7.80;99.90;;;;;;5086927;28;20418;-63
2021/04/24 04:55:40;;;;;;;2.67;0.90;;;7.70;99.90;;;;;;5092762;28;20546;-63
2021/04/24 04:58:07;;;;;;;1.40;0.80;;;7.80;99.90;;;;;;5093602;28;20765;-63
2021/04/24 05:00:33;;;;;;;1.73;0.88;;;7.80;99.90;;;;;;5094047;28;20421;-63
2021/04/24 05:03:00;;;;;;;2.15;0.85;;;7.80;99.90;;;;;;5092698;28;20453;-63
2021/04/24 05:05:42;;;;;;;2.25;0.88;;;7.80;99.90;;;;;;5089706;28;20796;-63
2021/04/24 05:08:12;;;;;;;2.13;0.90;;;7.80;99.90;;;;;;5095105;28;20814;-66
2021/04/24 05:10:38;;;;;;;1.92;0.98;;;8.00;99.90;;;;;;5088106;28;20434;-66
2021/04/24 05:13:05;;;;;;;1.30;0.80;;;8.10;99.90;;;;;;5085139;28;20464;-65
2021/04/24 05:15:31;;;;;;;2.10;0.90;;;8.00;99.90;;;;;;5073821;28;20429;-65
2021/04/24 05:17:57;;;;;;;2.75;1.00;;;8.10;99.90;;;;;;5083394;28;20429;-65
2021/04/24 05:20:24;;;;;;;4.50;0.90;;;8.10;99.90;;;;;;5088392;28;20453;-65
2021/04/24 05:22:51;;;;;;;2.42;0.90;;;8.20;99.90;;;;;;5094465;28;20418;-66
2021/04/24 05:25:18;;;;;;;3.50;1.00;;;8.20;99.90;;;;;;5086093;28;20425;-62
2021/04/24 05:27:46;;;;;;;2.53;0.90;;;8.30;99.90;;;;;;5091822;28;20772;-62
2021/04/24 05:30:14;;;;;;;2.10;0.90;;;8.10;99.90;;;;;;5093596;28;20618;-63
2021/04/24 05:32:41;;;;;;;2.10;0.80;;;8.20;99.90;;;;;;5093954;28;20457;-64
2021/04/24 05:35:09;;;;;;;2.50;1.10;;;8.20;99.90;;;;;;5088877;28;20433;-63
2021/04/24 05:37:35;;;;;;;2.30;0.90;;;8.30;99.90;;;;;;5093085;28;20437;-63
2021/04/24 05:40:03;;;;;;;3.00;1.50;;;8.20;99.90;;;;;;5093360;28;20453;-63
2021/04/24 05:42:30;;;;;;;3.40;1.10;;;8.10;99.90;;;;;;5075857;28;20467;-62
2021/04/24 05:44:57;;;;;;;3.00;1.00;;;7.90;99.90;;;;;;5081516;28;20759;-61
2021/04/24 05:47:23;;;;;;;1.70;0.80;;;7.80;99.90;;;;;;5082268;28;20430;-60
2021/04/24 05:49:50;;;;;;;2.35;0.98;;;8.10;99.90;;;;;;5089778;28;20422;-60
2021/04/24 05:52:16;;;;;;;2.55;1.00;;;8.30;99.90;;;;;;5091330;28;20429;-60
2021/04/24 05:54:43;;;;;;;2.90;0.93;;;8.60;99.90;;;;;;5075075;28;20793;-60
2021/04/24 05:57:11;;;;;;;2.40;0.90;;;8.70;99.90;;;;;;5089886;28;20756;-60
2021/04/24 05:59:37;;;;;;;1.10;0.80;;;8.90;99.90;;;;;;5081616;28;20451;-60
2021/04/24 06:02:04;;;;;;;2.80;0.90;;;8.90;99.90;;;;;;5078341;28;20851;-60
2021/04/24 06:04:31;;;;;;;4.30;1.20;;;9.00;99.90;;;;;;5097297;28;20463;-60
2021/04/24 06:07:00;;;;;;;3.88;0.90;;;9.00;99.90;;;;;;5098313;28;20433;-60
2021/04/24 06:09:36;;;;;;;1.52;1.00;;;8.90;99.90;;;;;;5078434;28;20419;-62
2021/04/24 06:12:03;;;;;;;2.10;1.00;;;8.90;99.90;;;;;;5097502;28;20429;-60
2021/04/24 06:14:30;;;;;;;1.90;1.00;;;8.80;99.90;;;;;;5098569;28;20461;-60
2021/04/24 06:16:58;;;;;;;2.00;1.08;;;8.80;99.90;;;;;;5096993;28;20808;-60
2021/04/24 06:19:28;;;;;;;2.10;1.10;;;8.80;99.90;;;;;;5094732;28;20478;-60
2021/04/24 06:21:55;;;;;;;3.05;1.10;;;8.70;99.90;;;;;;5095014;28;20525;-60
2021/04/24 06:24:22;;;;;;;4.60;1.00;;;8.70;99.90;;;;;;5094266;28;20430;-61
2021/04/24 06:26:48;;;;;;;3.63;1.20;;;8.70;99.90;;;;;;5083408;28;20425;-62
2021/04/24 06:29:14;;;;;;;2.30;1.10;;;8.70;99.90;;;;;;5095017;28;20441;-62
2021/04/24 06:31:42;;;;;;;2.13;0.90;;;8.70;99.90;;;;;;5088193;28;20429;-61
2021/04/24 06:34:08;;;;;;;2.80;1.10;;;8.80;99.90;;;;;;5099234;28;20422;-62
2021/04/24 06:36:34;;;;;;;3.70;1.02;;;8.90;99.90;;;;;;5086315;28;20518;-65
2021/04/24 06:39:05;;;;;;;2.70;1.20;;;9.00;99.90;;;;;;5079583;28;20463;-61
2021/04/24 06:41:32;;;;;;;3.00;1.20;;;9.20;99.90;;;;;;5098814;28;20490;-60
2021/04/24 06:43:58;;;;;;;1.90;1.20;;;9.20;99.90;;;;;;5099096;28;20872;-61
2021/04/24 06:46:24;;;;;;;3.40;1.20;;;9.20;99.90;;;;;;5098390;28;20425;-61
2021/04/24 06:48:52;;;;;;;2.75;1.30;;;9.40;99.90;;;;;;5090731;28;20456;-61
2021/04/24 06:51:18;;;;;;;3.47;1.45;;;9.60;99.90;;;;;;5090737;28;20435;-60
2021/04/24 06:53:45;;;;;;;48.20;38.90;;;9.80;99.90;;;;;;5087258;28;20433;-60
2021/04/24 06:56:12;;;;;;;37.72;25.80;;;9.90;99.90;;;;;;5095030;28;20433;-60
2021/04/24 06:58:38;;;;;;;4.10;1.73;;;10.00;99.90;;;;;;5094147;28;20457;-60
2021/04/24 07:01:05;;;;;;;5.93;1.97;;;10.20;99.90;;;;;;5091053;28;20730;-60
2021/04/24 07:03:31;;;;;;;1.77;1.23;;;10.30;99.90;;;;;;5094558;28;20824;-60
2021/04/24 07:05:58;;;;;;;2.10;1.40;;;10.30;99.90;;;;;;5087803;28;20883;-60
2021/04/24 07:08:33;;;;;;;2.70;1.50;;;10.20;99.90;;;;;;5094665;28;20475;-61
2021/04/24 07:10:59;;;;;;;2.90;1.70;;;10.40;99.90;;;;;;5095030;28;20425;-60
2021/04/24 07:13:26;;;;;;;5.60;3.20;;;10.50;99.90;;;;;;5094825;28;20422;-60
2021/04/24 07:15:52;;;;;;;5.20;2.15;;;10.70;99.90;;;;;;5095977;28;20520;-60
2021/04/24 07:18:19;;;;;;;9.05;5.18;;;10.90;99.90;;;;;;5096588;28;20425;-59
2021/04/24 07:20:45;;;;;;;5.82;3.70;;;11.10;99.90;;;;;;5094856;28;20741;-61
2021/04/24 07:23:12;;;;;;;4.30;1.55;;;11.20;99.90;;;;;;5081537;28;20454;-61
2021/04/24 07:25:39;;;;;;;4.50;1.80;;;11.20;99.90;;;;;;5086738;28;20497;-61
2021/04/24 07:28:05;;;;;;;7.25;2.08;;;11.30;99.90;;;;;;5090208;28;20469;-62
2021/04/24 07:30:32;;;;;;;3.50;1.40;;;11.40;99.90;;;;;;5088007;28;21009;-61
2021/04/24 07:32:58;;;;;;;4.00;1.70;;;11.30;99.90;;;;;;5088671;28;20454;-61
2021/04/24 07:35:25;;;;;;;4.57;1.60;;;11.40;99.90;;;;;;5088614;28;20503;-62
2021/04/24 07:37:52;;;;;;;4.72;1.30;;;11.50;99.90;;;;;;5086509;28;20850;-61
2021/04/24 07:40:19;;;;;;;3.00;1.60;;;11.70;99.90;;;;;;5088313;28;20433;-60
2021/04/24 07:42:45;;;;;;;3.60;1.60;;;11.60;99.90;;;;;;5083148;28;20423;-60
2021/04/24 07:45:13;;;;;;;8.23;1.95;;;11.60;99.90;;;;;;5081161;28;21043;-60
2021/04/24 07:47:41;;;;;;;4.80;1.63;;;11.60;99.90;;;;;;5083963;28;20463;-60
2021/04/24 07:50:09;;;;;;;2.60;1.67;;;11.70;99.90;;;;;;5082293;28;20426;-61
2021/04/24 07:52:36;;;;;;;4.43;1.60;;;11.90;99.90;;;;;;5092920;28;20521;-60
2021/04/24 07:55:03;;;;;;;3.55;1.70;;;12.00;99.90;;;;;;5093366;28;20449;-60
2021/04/24 07:57:30;;;;;;;2.70;1.40;;;12.20;99.90;;;;;;5093568;28;20881;-59
2021/04/24 07:59:57;;;;;;;3.50;1.60;;;12.30;99.90;;;;;;5094457;28;20747;-59
2021/04/24 08:02:23;;;;;;;3.38;1.60;;;12.30;99.90;;;;;;5093491;28;20465;-58
2021/04/24 08:04:50;;;;;;;2.28;1.38;;;12.30;99.90;;;;;;5094833;28;20414;-59
2021/04/24 08:07:16;;;;;;;4.85;1.70;;;12.40;99.90;;;;;;5094908;28;20432;-61
2021/04/24 08:09:43;;;;;;;5.80;1.65;;;12.60;99.90;;;;;;5091331;28;20748;-59
2021/04/24 08:12:09;;;;;;;5.22;1.67;;;12.60;99.90;;;;;;5090168;28;20430;-59
2021/04/24 08:14:37;;;;;;;5.07;1.40;;;12.80;99.90;;;;;;5090484;28;20810;-60
2021/04/24 08:17:03;;;;;;;3.08;1.55;;;13.00;99.90;;;;;;5084768;28;20442;-60
2021/04/24 08:19:30;;;;;;;3.97;1.40;;;13.20;99.90;;;;;;5087516;28;21015;-60
2021/04/24 08:21:56;;;;;;;2.60;1.40;;;13.50;99.90;;;;;;5086647;28;20717;-60
2021/04/24 08:24:23;;;;;;;2.70;1.60;;;13.80;99.90;;;;;;5089458;28;20418;-59
2021/04/24 08:26:50;;;;;;;3.25;1.50;;;13.90;99.90;;;;;;5092458;28;20437;-60
2021/04/24 08:29:16;;;;;;;3.10;2.03;;;14.10;99.70;;;;;;5093445;28;21212;-62
2021/04/24 08:31:44;;;;;;;8.98;1.42;;;14.10;98.70;;;;;;5094587;28;20453;-62
2021/04/24 08:34:11;;;;;;;3.10;1.30;;;14.20;97.40;;;;;;5082642;28;20449;-63
2021/04/24 08:36:38;;;;;;;4.63;1.30;;;14.10;96.70;;;;;;5087880;28;21110;-63
2021/04/24 08:39:05;;;;;;;2.10;1.00;;;14.10;95.40;;;;;;5080719;28;20430;-61
2021/04/24 08:41:33;;;;;;;5.67;1.57;;;14.30;97.00;;;;;;5079994;28;20426;-62
2021/04/24 08:44:00;;;;;;;2.97;1.30;;;14.60;96.10;;;;;;5088137;28;20475;-63
2021/04/24 08:46:36;;;;;;;2.72;1.20;;;14.70;94.30;;;;;;5089282;28;20437;-62
2021/04/24 08:49:04;;;;;;;3.40;1.23;;;14.70;94.90;;;;;;5089099;28;20430;-63
2021/04/24 08:51:30;;;;;;;2.40;1.30;;;14.90;93.90;;;;;;5086277;28;20710;-63
2021/04/24 08:54:07;;;;;;;3.50;1.50;;;15.10;92.40;;;;;;5079784;28;20451;-64
2021/04/24 08:56:33;;;;;;;1.92;1.30;;;15.10;90.60;;;;;;5084910;28;20435;-64
2021/04/24 08:58:59;;;;;;;4.50;1.30;;;15.10;90.70;;;;;;5083948;28;20427;-62
2021/04/24 09:01:26;;;;;;;2.30;1.17;;;15.10;88.50;;;;;;5090377;28;20456;-63
2021/04/24 09:03:53;;;;;;;3.27;1.30;;;15.10;90.10;;;;;;5082833;28;20796;-63
2021/04/24 09:06:22;;;;;;;3.03;1.60;;;15.10;87.90;;;;;;5081876;28;20447;-62
2021/04/24 09:08:54;;;;;;;2.60;1.30;;;15.20;89.80;;;;;;5085031;28;20427;-63
2021/04/24 09:11:21;;;;;;;3.83;1.30;;;15.60;87.70;;;;;;5085395;28;20421;-62
2021/04/24 09:13:58;;;;;;;3.53;1.40;;;15.60;85.30;;;;;;5091304;28;20468;-62
2021/04/24 09:16:26;;;;;;;5.07;2.43;;;15.50;85.70;;;;;;5090043;28;20499;-69
2021/04/24 09:18:57;;;;;;;4.50;2.83;;;15.70;86.10;;;;;;5091725;28;20430;-67
2021/04/24 09:21:26;;;;;;;3.92;1.17;;;15.90;80.00;;;;;;5077175;28;20448;-66
2021/04/24 09:23:53;;;;;;;2.58;1.40;;;15.70;83.10;;;;;;5088478;28;20425;-67
2021/04/24 09:26:22;;;;;;;2.88;1.20;;;15.90;83.10;;;;;;5085390;28;20418;-67
2021/04/24 09:28:57;;;;;;;1.70;1.30;;;16.20;80.60;;;;;;5089877;28;20576;-67
2021/04/24 09:31:25;;;;;;;2.80;1.30;;;16.50;79.70;;;;;;5085030;28;20428;-67
2021/04/24 09:33:54;;;;;;;4.70;1.23;;;16.80;79.70;;;;;;5083540;28;20484;-67
2021/04/24 09:36:21;;;;;;;2.50;1.35;;;17.00;77.10;;;;;;5090976;28;20433;-63
2021/04/24 09:38:55;;;;;;;3.05;1.50;;;17.10;75.50;;;;;;5084670;28;20483;-63
2021/04/24 09:41:23;;;;;;;2.80;1.30;;;17.20;73.80;;;;;;5086826;28;21018;-63
2021/04/24 09:43:55;;;;;;;3.67;1.33;;;17.30;70.70;;;;;;5087293;28;20437;-63
2021/04/24 09:46:22;;;;;;;2.13;1.20;;;17.30;68.30;;;;;;5082388;28;20425;-64
2021/04/24 09:48:49;;;;;;;2.40;1.10;;;17.40;69.10;;;;;;5091941;28;20768;-64
2021/04/24 09:51:19;;;;;;;4.00;1.48;;;17.50;66.80;;;;;;5084180;28;20525;-67
2021/04/24 09:53:56;;;;;;;2.50;1.30;;;17.70;62.50;;;;;;5085521;28;20422;-65
2021/04/24 09:56:25;;;;;;;2.53;1.33;;;17.70;64.90;;;;;;5080876;28;20520;-65
2021/04/24 09:58:52;;;;;;;3.20;1.40;;;17.80;64.50;;;;;;5089468;28;20453;-65
2021/04/24 10:01:23;;;;;;;2.70;1.40;;;18.10;60.60;;;;;;5088027;28;20413;-66
2021/04/24 10:03:51;;;;;;;2.80;1.30;;;17.70;62.00;;;;;;5091712;28;20424;-64
2021/04/24 10:06:23;;;;;;;2.43;1.40;;;17.80;61.10;;;;;;5091057;28;20829;-65
2021/04/24 10:08:50;;;;;;;2.80;1.30;;;17.90;59.70;;;;;;5088468;28;20477;-64
2021/04/24 10:11:29;;;;;;;2.40;1.30;;;17.80;59.10;;;;;;5082334;28;20452;-68
2021/04/24 10:13:56;;;;;;;2.30;1.30;;;18.10;58.10;;;;;;5083391;28;20882;-66
2021/04/24 10:16:36;;;;;;;3.88;1.40;;;18.20;57.90;;;;;;5085289;28;20429;-67
2021/04/24 10:19:04;;;;;;;4.00;1.20;;;18.50;57.20;;;;;;5081504;28;20426;-65
2021/04/24 10:21:31;;;;;;;3.80;1.70;;;19.00;56.90;;;;;;5089246;28;20490;-67
2021/04/24 10:23:58;;;;;;;3.42;1.30;;;19.20;55.70;;;;;;5082684;28;20609;-65
2021/04/24 10:26:26;;;;;;;3.05;1.30;;;19.50;55.30;;;;;;5076487;28;20420;-65
2021/04/24 10:28:55;;;;;;;3.55;1.60;;;19.70;54.40;;;;;;5088743;28;20838;-67
2021/04/24 10:31:22;;;;;;;3.65;1.40;;;20.00;54.00;;;;;;5085742;28;20424;-65
2021/04/24 10:33:49;;;;;;;2.25;1.38;;;20.20;53.40;;;;;;5084716;28;20427;-66
2021/04/24 10:36:16;;;;;;;3.00;1.40;;;20.30;53.90;;;;;;5082888;28;20827;-67
2021/04/24 10:38:45;;;;;;;3.50;1.90;;;20.50;52.30;;;;;;5084582;28;20421;-68
2021/04/24 10:41:13;;;;;;;4.13;1.45;;;20.80;52.00;;;;;;5089834;28;20461;-68
2021/04/24 10:43:40;;;;;;;4.20;1.90;;;20.70;50.80;;;;;;5089908;28;20530;-67
2021/04/24 10:46:28;;;;;;;3.30;1.90;;;21.10;51.30;;;;;;5084684;28;20867;-69
2021/04/24 10:49:17;;;;;;;2.08;1.40;;;21.10;51.50;;;;;;5089984;28;20463;-66
2021/04/24 10:52:17;;;;;;;3.22;1.30;;;20.90;50.10;;;;;;5093557;28;20426;-64
2021/04/24 10:55:04;;;;;;;3.80;1.50;;;21.00;48.60;;;;;;5089930;28;20512;-65
2021/04/24 10:57:44;;;;;;;3.00;1.60;;;21.10;50.00;;;;;;5092132;28;20514;-68
2021/04/24 11:00:14;;;;;;;6.40;1.50;;;21.20;48.90;;;;;;5090493;28;20445;-65
2021/04/24 11:02:43;;;;;;;3.42;1.40;;;21.10;48.80;;;;;;5093447;28;20494;-66
2021/04/24 11:05:26;;;;;;;4.03;1.70;;;21.40;47.60;;;;;;5094245;28;20421;-61
2021/04/24 11:08:27;;;;;;;4.30;1.40;;;21.00;47.50;;;;;;5090742;28;20440;-60
2021/04/24 11:10:59;;;;;;;3.45;1.25;;;21.00;47.60;;;;;;5076918;28;20915;-61
2021/04/24 11:13:29;;;;;;;5.10;1.90;;;21.20;48.20;;;;;;5084776;28;20908;-60
2021/04/24 11:15:56;;;;;;;4.00;1.50;;;21.70;47.10;;;;;;5084309;28;20434;-62
2021/04/24 11:18:24;;;;;;;3.00;1.40;;;22.00;45.90;;;;;;5091422;28;20528;-64
2021/04/24 11:21:03;;;;;;;4.65;1.50;;;21.50;44.70;;;;;;5086755;28;20446;-61
2021/04/24 11:23:49;;;;;;;4.07;1.50;;;21.30;46.20;;;;;;5085288;28;20434;-62
2021/04/24 11:26:46;;;;;;;2.85;1.30;;;21.30;45.00;;;;;;5095558;28;20826;-62
2021/04/24 11:29:13;;;;;;;5.30;2.60;;;21.60;45.80;;;;;;5081499;28;20745;-61
2021/04/24 11:32:00;;;;;;;2.97;1.50;;;21.60;45.10;;;;;;5095649;28;20484;-63
2021/04/24 11:34:34;;;;;;;2.67;1.35;;;21.60;45.20;;;;;;5094907;28;20491;-62
2021/04/24 11:37:37;;;;;;;2.30;1.30;;;21.60;45.70;;;;;;5095229;28;20440;-63
2021/04/24 11:40:25;;;;;;;3.20;1.70;;;22.00;44.90;;;;;;5095093;28;20418;-62
2021/04/24 11:43:00;;;;;;;2.90;1.38;;;21.90;43.60;;;;;;5095399;28;20456;-62
2021/04/24 11:45:58;;;;;;;2.95;1.40;;;22.20;44.90;;;;;;5093980;28;20449;-63
2021/04/24 11:49:00;;;;;;;3.72;2.45;;;22.20;43.70;;;;;;5093909;28;20486;-62
2021/04/24 11:51:40;;;;;;;5.15;3.58;;;22.10;43.00;;;;;;5094987;28;20424;-62
2021/04/24 11:54:08;;;;;;;4.05;1.80;;;22.10;43.30;;;;;;5094818;28;20439;-62
2021/04/24 11:56:35;;;;;;;3.33;1.30;;;21.90;41.60;;;;;;5093831;28;20527;-62
2021/04/24 11:59:03;;;;;;;3.30;1.40;;;22.10;42.10;;;;;;5092289;28;20494;-63
2021/04/24 12:01:31;;;;;;;3.25;1.45;;;21.90;41.90;;;;;;5083289;28;20487;-62
2021/04/24 12:09:28;;;;;;;2.33;1.50;;;22.40;42.50;;;;;;5079503;28;20424;-62
2021/04/24 12:12:08;;;;;;;3.20;1.70;;;22.60;42.00;;;;;;5085282;28;20513;-61
2021/04/24 12:14:35;;;;;;;2.83;1.50;;;22.70;41.80;;;;;;5086328;28;20414;-63
2021/04/24 12:17:07;;;;;;;3.13;1.60;;;22.80;41.40;;;;;;5090998;28;21057;-61
2021/04/24 12:19:37;;;;;;;5.70;1.20;;;22.90;40.70;;;;;;5086124;28;20466;-61
2021/04/24 12:22:12;;;;;;;3.42;1.38;;;22.80;41.60;;;;;;5082747;28;20496;-62
2021/04/24 12:25:07;;;;;;;3.33;1.40;;;22.80;40.60;;;;;;5076458;28;20518;-63
2021/04/24 12:27:36;;;;;;;2.45;1.60;;;22.70;41.80;;;;;;5090040;28;20518;-62
2021/04/24 12:30:07;;;;;;;2.35;1.40;;;23.00;41.10;;;;;;5091855;28;20479;-62
2021/04/24 12:32:37;;;;;;;5.60;1.30;;;23.00;41.00;;;;;;5091495;28;20474;-62
2021/04/24 12:35:13;;;;;;;3.35;1.70;;;22.70;39.90;;;;;;5086895;28;20897;-62
2021/04/24 12:37:41;;;;;;;2.83;1.27;;;22.70;39.90;;;;;;5089205;28;20888;-62
2021/04/24 12:40:11;;;;;;;4.25;1.80;;;22.90;40.70;;;;;;5090953;28;20425;-62
2021/04/24 12:42:39;;;;;;;5.35;1.67;;;23.30;40.60;;;;;;5084260;28;20461;-62
2021/04/24 12:45:10;;;;;;;3.03;1.40;;;23.30;38.00;;;;;;5084555;28;20596;-61
2021/04/24 12:47:36;;;;;;;2.95;1.30;;;23.10;38.80;;;;;;5090220;28;20457;-61
2021/04/24 12:50:11;;;;;;;23.35;16.92;;;23.10;39.00;;;;;;5088055;28;20726;-61
2021/04/24 12:52:46;;;;;;;6.65;3.75;;;23.30;38.70;;;;;;5084649;28;20435;-61
2021/04/24 12:55:14;;;;;;;1.90;1.30;;;23.30;38.20;;;;;;5087345;28;20498;-59
2021/04/24 12:57:52;;;;;;;3.78;1.55;;;23.30;37.60;;;;;;5091817;28;20787;-60
2021/04/24 13:00:20;;;;;;;4.15;1.33;;;23.00;38.00;;;;;;5092941;28;20428;-61
2021/04/24 13:02:46;;;;;;;1.80;1.00;;;22.90;37.20;;;;;;5093216;28;20519;-62
2021/04/24 13:05:14;;;;;;;2.97;1.30;;;23.00;37.80;;;;;;5091811;28;20418;-62